createdAt,value
2023-02-26T00:02:17.258Z,97493.03
2023-02-26T00:04:43.977Z,97502.69
2023-02-26T00:07:10.669Z,97506.47
2023-02-26T00:09:37.270Z,97510.56
2023-02-26T00:12:04.283Z,97514.56
2023-02-26T00:14:31.289Z,97524.34
2023-02-26T00:17:08.321Z,97513.47
2023-02-26T00:19:35.191Z,97516.22
2023-02-26T00:22:02.160Z,97511.56
2023-02-26T00:24:28.915Z,97514.34
2023-02-26T00:26:55.663Z,97521.75
2023-02-26T00:29:22.801Z,97511.34
2023-02-26T00:31:50.065Z,97514.09
2023-02-26T00:34:17.240Z,97507.34
2023-02-26T00:37:03.124Z,97501.72
2023-02-26T00:39:29.714Z,97516.47
2023-02-26T00:41:56.767Z,97498.72
2023-02-26T00:44:23.764Z,97503.59
2023-02-26T00:47:00.773Z,97502.38
2023-02-26T00:49:33.591Z,97500.16
2023-02-26T00:52:05.100Z,97505.47
2023-02-26T00:54:31.893Z,97508.03
2023-02-26T00:56:59.557Z,97515.69
2023-02-26T00:59:26.381Z,97511.88
2023-02-26T01:01:53.555Z,97505.47
2023-02-26T01:04:22.784Z,97507.56
2023-02-26T01:06:55.385Z,97501.38
2023-02-26T01:09:36.880Z,97490.16
2023-02-26T01:12:13.381Z,97487.72
2023-02-26T01:14:41.135Z,97492.72
2023-02-26T01:17:29.691Z,97496.06
2023-02-26T01:20:06.337Z,97492.28
2023-02-26T01:22:54.657Z,97492.28
2023-02-26T01:25:26.880Z,97487.72
2023-02-26T01:27:54.276Z,97487.63
2023-02-26T01:30:21.805Z,97492.94
2023-02-26T01:32:51.695Z,97495.81
2023-02-26T01:35:42.721Z,97502.47
2023-02-26T01:38:28.525Z,97499.91
2023-02-26T01:41:07.970Z,97488.41
2023-02-26T01:43:57.053Z,97463.28
2023-02-26T01:46:41.953Z,97417.63
2023-02-26T01:49:14.797Z,97368.59
2023-02-26T01:51:51.378Z,97290.00
2023-02-26T01:54:28.668Z,97239.75
2023-02-26T01:57:10.284Z,97188.91
2023-02-26T01:59:43.828Z,97144.00
2023-02-26T02:02:11.144Z,97113.31
2023-02-26T02:04:38.905Z,97099.25
2023-02-26T02:07:06.612Z,97076.22
2023-02-26T02:09:33.725Z,97057.00
2023-02-26T02:12:12.819Z,97045.31
2023-02-26T02:14:48.480Z,97042.00
2023-02-26T02:17:20.307Z,97035.31
2023-02-26T02:20:11.138Z,97036.22
2023-02-26T02:22:43.896Z,97026.63
2023-02-26T02:25:32.095Z,97032.41
2023-02-26T02:28:03.967Z,97054.31
2023-02-26T02:30:50.012Z,97056.47
2023-02-26T02:33:20.225Z,97072.22
2023-02-26T02:35:57.939Z,97087.38
2023-02-26T02:38:33.022Z,97095.19
2023-02-26T02:41:11.194Z,97116.22
2023-02-26T02:43:41.084Z,97115.13
2023-02-26T02:46:16.194Z,97118.13
2023-02-26T02:48:59.217Z,97121.59
2023-02-26T02:51:31.193Z,97127.09
2023-02-26T02:54:05.236Z,97134.19
2023-02-26T02:56:42.185Z,97132.28
2023-02-26T02:59:32.228Z,97127.53
2023-02-26T03:02:13.139Z,97129.63
2023-02-26T03:04:41.510Z,97142.34
2023-02-26T03:07:08.885Z,97135.03
2023-02-26T03:09:36.136Z,97138.03
2023-02-26T03:12:03.885Z,97135.31
2023-02-26T03:14:31.778Z,97141.19
2023-02-26T03:17:03.566Z,97136.03
2023-02-26T03:20:00.578Z,97136.78
2023-02-26T03:22:39.576Z,97129.56
2023-02-26T03:25:26.948Z,97142.06
2023-02-26T03:28:25.660Z,97146.84
2023-02-26T03:31:08.693Z,97151.31
2023-02-26T03:33:53.677Z,97161.00
2023-02-26T03:36:40.567Z,97187.69
2023-02-26T03:39:33.590Z,97208.06
2023-02-26T03:42:09.940Z,97220.19
2023-02-26T03:44:53.328Z,97240.59
2023-02-26T03:47:20.658Z,97248.69
2023-02-26T03:50:18.076Z,97263.19
2023-02-26T03:53:08.064Z,97282.69
2023-02-26T03:55:47.487Z,97286.69
2023-02-26T03:58:43.420Z,97293.19
2023-02-26T04:01:38.761Z,97305.84
2023-02-26T04:04:10.655Z,97315.75
2023-02-26T04:06:37.677Z,97308.69
2023-02-26T04:09:05.538Z,97322.63
2023-02-26T04:11:36.551Z,97328.28
2023-02-26T04:14:03.252Z,97332.50
2023-02-26T04:16:33.517Z,97337.66
2023-02-26T04:19:00.210Z,97354.06
2023-02-26T04:21:27.011Z,97369.13
2023-02-26T04:23:53.774Z,97391.16
2023-02-26T04:26:20.608Z,97413.16
2023-02-26T04:28:47.240Z,97422.81
2023-02-26T04:31:14.472Z,97437.56
2023-02-26T04:33:41.484Z,97444.25
2023-02-26T04:36:09.094Z,97443.53
2023-02-26T04:38:36.441Z,97462.34
2023-02-26T04:41:04.738Z,97465.34
2023-02-26T04:43:31.564Z,97490.38
2023-02-26T04:46:12.754Z,97489.25
2023-02-26T04:48:40.184Z,97493.94
2023-02-26T04:51:07.023Z,97487.66
2023-02-26T04:53:33.738Z,97499.31
2023-02-26T04:56:00.473Z,97512.84
2023-02-26T04:58:27.125Z,97528.03
2023-02-26T05:00:57.580Z,97541.63
2023-02-26T05:03:24.499Z,97547.78
2023-02-26T05:05:51.490Z,97567.13
2023-02-26T05:08:18.123Z,97575.44
2023-02-26T05:10:45.909Z,97576.97
2023-02-26T05:13:12.597Z,97593.00
2023-02-26T05:15:39.296Z,97604.38
2023-02-26T05:18:06.077Z,97609.72
2023-02-26T05:20:32.751Z,97607.75
2023-02-26T05:22:59.421Z,97629.00
2023-02-26T05:25:26.086Z,97624.34
2023-02-26T05:27:52.876Z,97629.41
2023-02-26T05:30:19.621Z,97626.69
2023-02-26T05:32:46.494Z,97637.13
2023-02-26T05:35:13.723Z,97637.97
2023-02-26T05:37:40.836Z,97640.09
2023-02-26T05:40:11.863Z,97646.72
2023-02-26T05:42:39.606Z,97639.34
2023-02-26T05:45:07.031Z,97638.81
2023-02-26T05:47:34.311Z,97637.25
2023-02-26T05:50:01.682Z,97635.28
2023-02-26T05:52:28.376Z,97629.16
2023-02-26T05:54:56.152Z,97637.56
2023-02-26T05:57:23.835Z,97632.91
2023-02-26T05:59:50.838Z,97640.69
2023-02-26T06:02:17.578Z,97635.38
2023-02-26T06:04:44.274Z,97636.03
2023-02-26T06:07:10.890Z,97632.81
2023-02-26T06:09:37.472Z,97641.38
2023-02-26T06:12:04.233Z,97649.78
2023-02-26T06:14:31.087Z,97655.13
2023-02-26T06:16:57.720Z,97654.25
2023-02-26T06:19:24.451Z,97658.28
2023-02-26T06:21:51.156Z,97649.03
2023-02-26T06:24:17.781Z,97658.91
2023-02-26T06:26:44.463Z,97666.28
2023-02-26T06:29:11.124Z,97664.38
2023-02-26T06:31:38.000Z,97673.47
2023-02-26T06:34:04.836Z,97667.34
2023-02-26T06:36:31.612Z,97676.19
2023-02-26T06:38:58.245Z,97676.72
2023-02-26T06:41:24.995Z,97694.78
2023-02-26T06:43:51.651Z,97695.09
2023-02-26T06:46:18.459Z,97699.13
2023-02-26T06:48:45.143Z,97705.53
2023-02-26T06:51:11.836Z,97724.13
2023-02-26T06:53:38.508Z,97737.88
2023-02-26T06:56:05.677Z,97745.44
2023-02-26T06:58:32.521Z,97780.63
2023-02-26T07:00:59.193Z,97801.72
2023-02-26T07:03:25.827Z,97837.06
2023-02-26T07:05:52.917Z,97836.09
2023-02-26T07:08:19.680Z,97879.84
2023-02-26T07:10:49.309Z,97904.31
2023-02-26T07:13:17.272Z,97926.25
2023-02-26T07:15:46.192Z,97946.84
2023-02-26T07:18:12.957Z,97977.09
2023-02-26T07:20:39.822Z,97993.91
2023-02-26T07:23:06.572Z,98024.75
2023-02-26T07:25:33.990Z,98060.25
2023-02-26T07:28:00.587Z,98058.84
2023-02-26T07:30:27.343Z,98087.94
2023-02-26T07:32:54.028Z,98088.50
2023-02-26T07:35:20.617Z,98106.47
2023-02-26T07:37:47.205Z,98107.88
2023-02-26T07:40:14.426Z,98101.94
2023-02-26T07:42:41.353Z,98122.28
2023-02-26T07:45:08.899Z,98128.53
2023-02-26T07:47:35.614Z,98155.13
2023-02-26T07:50:02.500Z,98165.00
2023-02-26T07:52:29.308Z,98163.25
2023-02-26T07:54:56.490Z,98174.84
2023-02-26T07:57:23.227Z,98165.31
2023-02-26T07:59:49.945Z,98146.31
2023-02-26T08:02:17.088Z,98164.72
2023-02-26T08:04:43.838Z,98168.22
2023-02-26T08:07:10.681Z,98192.06
2023-02-26T08:09:37.465Z,98189.56
2023-02-26T08:12:04.202Z,98195.03
2023-02-26T08:14:30.831Z,98197.28
2023-02-26T08:16:57.465Z,98200.84
2023-02-26T08:19:24.115Z,98203.16
2023-02-26T08:21:51.017Z,98189.59
2023-02-26T08:24:17.819Z,98183.88
2023-02-26T08:26:46.349Z,98184.34
2023-02-26T08:29:13.103Z,98163.31
2023-02-26T08:31:42.855Z,98172.72
2023-02-26T08:34:09.566Z,98194.06
2023-02-26T08:36:36.173Z,98197.38
2023-02-26T08:39:03.175Z,98208.63
2023-02-26T08:41:32.425Z,98214.69
2023-02-26T08:43:59.964Z,98184.91
2023-02-26T08:46:27.329Z,98178.41
2023-02-26T08:48:54.533Z,98199.25
2023-02-26T08:51:22.643Z,98178.88
2023-02-26T08:53:50.710Z,98178.16
2023-02-26T08:56:17.818Z,98182.25
2023-02-26T08:58:44.413Z,98173.09
2023-02-26T09:01:11.336Z,98159.59
2023-02-26T09:03:38.133Z,98150.72
2023-02-26T09:06:05.016Z,98213.25
2023-02-26T09:08:35.612Z,98219.44
2023-02-26T09:11:03.061Z,98209.63
2023-02-26T09:13:30.452Z,98221.22
2023-02-26T09:15:57.496Z,98236.06
2023-02-26T09:18:24.432Z,98216.78
2023-02-26T09:20:51.315Z,98218.09
2023-02-26T09:23:18.296Z,98240.97
2023-02-26T09:25:45.302Z,98256.72
2023-02-26T09:28:12.043Z,98238.50
2023-02-26T09:30:38.754Z,98274.66
2023-02-26T09:33:05.697Z,98262.34
2023-02-26T09:35:32.365Z,98259.91
2023-02-26T09:37:59.212Z,98283.38
2023-02-26T09:40:45.312Z,98283.94
2023-02-26T09:43:34.538Z,98280.13
2023-02-26T09:46:35.985Z,98289.72
2023-02-26T09:49:13.108Z,98290.88
2023-02-26T09:51:40.347Z,98301.13
2023-02-26T09:54:18.441Z,98318.44
2023-02-26T09:56:45.532Z,98318.53
2023-02-26T09:59:13.244Z,98336.06
2023-02-26T10:02:44.783Z,98321.22
2023-02-26T10:05:33.848Z,98326.06
2023-02-26T10:08:04.817Z,98333.44
2023-02-26T10:10:50.162Z,98338.41
2023-02-26T10:13:31.734Z,98331.53
2023-02-26T10:16:05.580Z,98337.19
2023-02-26T10:18:37.749Z,98341.13
2023-02-26T10:21:12.770Z,98346.72
2023-02-26T10:23:46.283Z,98354.91
2023-02-26T10:26:25.199Z,98375.91
2023-02-26T10:29:33.461Z,98371.75
2023-02-26T10:32:20.063Z,98362.66
2023-02-26T10:34:57.130Z,98364.75
2023-02-26T10:37:49.725Z,98371.06
2023-02-26T10:40:16.416Z,98369.28
2023-02-26T10:42:55.405Z,98376.03
2023-02-26T10:45:40.584Z,98376.69
2023-02-26T10:48:18.489Z,98393.91
2023-02-26T10:50:53.853Z,98388.25
2023-02-26T10:53:22.069Z,98384.91
2023-02-26T10:55:54.077Z,98399.53
2023-02-26T10:58:25.571Z,98382.06
2023-02-26T11:00:55.195Z,98388.09
2023-02-26T11:03:30.758Z,98378.59
2023-02-26T11:05:57.651Z,98387.50
2023-02-26T11:08:30.852Z,98393.06
2023-02-26T11:11:01.041Z,98392.75
2023-02-26T11:13:30.094Z,98391.72
2023-02-26T11:16:00.580Z,98386.59
2023-02-26T11:18:36.573Z,98394.88
2023-02-26T11:21:05.667Z,98401.91
2023-02-26T11:23:33.528Z,98394.31
2023-02-26T11:26:07.181Z,98399.31
2023-02-26T11:28:47.243Z,98395.25
2023-02-26T11:31:18.236Z,98398.59
2023-02-26T11:33:58.844Z,98391.41
2023-02-26T11:36:28.584Z,98399.63
2023-02-26T11:38:58.774Z,98390.06
2023-02-26T11:41:28.003Z,98395.44
2023-02-26T11:44:03.125Z,98390.97
2023-02-26T11:46:29.931Z,98393.97
2023-02-26T11:48:59.871Z,98397.25
2023-02-26T11:51:29.008Z,98407.41
2023-02-26T11:54:01.634Z,98400.59
2023-02-26T11:56:42.421Z,98398.56
2023-02-26T11:59:20.450Z,98394.91
2023-02-26T12:01:48.230Z,98403.34
2023-02-26T12:04:19.596Z,98400.56
2023-02-26T12:06:54.340Z,98399.03
2023-02-26T12:09:21.701Z,98400.56
2023-02-26T12:12:30.135Z,98410.72
2023-02-26T12:15:01.382Z,98422.69
2023-02-26T12:17:35.329Z,98422.34
2023-02-26T12:20:22.244Z,98406.72
2023-02-26T12:23:09.276Z,98412.31
2023-02-26T12:25:49.263Z,98413.63
2023-02-26T12:28:27.017Z,98410.47
2023-02-26T12:31:29.710Z,98418.22
2023-02-26T12:34:05.097Z,98416.97
2023-02-26T12:37:22.939Z,98432.97
2023-02-26T12:40:06.562Z,98417.31
2023-02-26T12:42:51.511Z,98421.34
2023-02-26T12:45:40.934Z,98419.66
2023-02-26T12:48:40.217Z,98417.44
2023-02-26T12:51:51.319Z,98400.75
2023-02-26T12:54:53.070Z,98438.97
2023-02-26T12:57:29.047Z,98422.09
2023-02-26T13:00:12.933Z,98415.75
2023-02-26T13:03:13.739Z,98429.66
2023-02-26T13:06:08.084Z,98427.56
2023-02-26T13:08:53.229Z,98422.66
2023-02-26T13:11:50.346Z,98428.38
2023-02-26T13:14:43.567Z,98428.94
2023-02-26T13:17:14.749Z,98431.84
2023-02-26T13:19:48.703Z,98437.00
2023-02-26T13:22:20.340Z,98443.53
2023-02-26T13:25:20.960Z,98437.25
2023-02-26T13:27:50.113Z,98434.97
2023-02-26T13:30:26.079Z,98416.88
2023-02-26T13:32:58.766Z,98423.56
2023-02-26T13:35:31.271Z,98429.16
2023-02-26T13:38:01.734Z,98432.75
2023-02-26T13:40:34.406Z,98436.97
2023-02-26T13:43:04.393Z,98427.94
2023-02-26T13:45:33.765Z,98415.19
2023-02-26T13:48:17.072Z,98429.59
2023-02-26T13:51:09.330Z,98444.59
2023-02-26T13:53:48.044Z,98439.09
2023-02-26T13:56:17.072Z,98446.03
2023-02-26T13:58:49.466Z,98438.63
2023-02-26T14:01:27.682Z,98442.25
2023-02-26T14:04:23.929Z,98453.19
2023-02-26T14:07:13.238Z,98440.69
2023-02-26T14:10:15.370Z,98452.63
2023-02-26T14:12:43.605Z,98453.47
2023-02-26T14:15:13.410Z,98461.97
2023-02-26T14:17:51.630Z,98452.44
2023-02-26T14:20:27.457Z,98462.44
2023-02-26T14:23:24.001Z,98460.97
2023-02-26T14:25:55.053Z,98457.53
2023-02-26T14:28:28.046Z,98464.44
2023-02-26T14:31:20.009Z,98464.94
2023-02-26T14:33:59.914Z,98470.78
2023-02-26T14:36:35.651Z,98473.78
2023-02-26T14:39:06.554Z,98472.09
2023-02-26T14:41:41.272Z,98478.81
2023-02-26T14:44:18.370Z,98476.88
2023-02-26T14:46:45.740Z,98475.53
2023-02-26T14:49:20.518Z,98476.41
2023-02-26T14:52:18.993Z,98476.00
2023-02-26T14:54:53.321Z,98463.31
2023-02-26T14:57:31.958Z,98479.22
2023-02-26T15:00:19.095Z,98481.06
2023-02-26T15:03:13.701Z,98470.94
2023-02-26T15:06:05.417Z,98469.81
2023-02-26T15:08:41.029Z,98478.00
2023-02-26T15:11:52.325Z,98474.56
2023-02-26T15:14:46.899Z,98476.13
2023-02-26T15:17:31.620Z,98480.72
2023-02-26T15:20:10.459Z,98482.28
2023-02-26T15:23:03.011Z,98475.22
2023-02-26T15:25:34.139Z,98464.88
2023-02-26T15:28:07.505Z,98481.28
2023-02-26T15:30:34.803Z,98480.63
2023-02-26T15:33:05.323Z,98478.44
2023-02-26T15:35:34.985Z,98487.53
2023-02-26T15:38:04.259Z,98482.19
2023-02-26T15:40:35.004Z,98485.09
2023-02-26T15:43:02.509Z,98480.84
2023-02-26T15:45:38.927Z,98487.78
2023-02-26T15:48:09.386Z,98473.47
2023-02-26T15:50:40.872Z,98482.06
2023-02-26T15:53:09.693Z,98486.66
2023-02-26T15:55:40.318Z,98490.66
2023-02-26T15:58:08.115Z,98495.13
2023-02-26T16:00:37.181Z,98487.63
2023-02-26T16:03:04.813Z,98495.31
2023-02-26T16:05:32.338Z,98504.44
2023-02-26T16:07:59.164Z,98494.63
2023-02-26T16:10:38.387Z,98492.34
2023-02-26T16:13:06.862Z,98482.47
2023-02-26T16:15:37.852Z,98491.78
2023-02-26T16:18:08.799Z,98491.28
2023-02-26T16:20:42.609Z,98488.75
2023-02-26T16:23:17.585Z,98489.38
2023-02-26T16:25:53.388Z,98485.91
2023-02-26T16:28:28.375Z,98498.16
2023-02-26T16:30:57.513Z,98500.56
2023-02-26T16:33:26.033Z,98499.19
2023-02-26T16:36:04.599Z,98504.25
2023-02-26T16:38:42.598Z,98519.44
2023-02-26T16:41:11.490Z,98512.09
2023-02-26T16:43:50.304Z,98517.88
2023-02-26T16:46:53.031Z,98531.13
2023-02-26T16:49:25.024Z,98529.44
2023-02-26T16:51:54.079Z,98528.31
2023-02-26T16:54:23.808Z,98539.31
2023-02-26T16:57:02.592Z,98538.94
2023-02-26T16:59:32.096Z,98542.25
2023-02-26T17:02:05.585Z,98559.34
2023-02-26T17:04:35.436Z,98560.56
2023-02-26T17:07:05.269Z,98560.09
2023-02-26T17:09:40.152Z,98556.75
2023-02-26T17:12:24.073Z,98564.84
2023-02-26T17:14:56.429Z,98552.56
2023-02-26T17:17:24.532Z,98551.53
2023-02-26T17:19:51.685Z,98558.13
2023-02-26T17:22:25.778Z,98560.47
2023-02-26T17:24:53.763Z,98565.41
2023-02-26T17:27:33.085Z,98561.47
2023-02-26T17:30:02.298Z,98565.59
2023-02-26T17:32:31.028Z,98589.03
2023-02-26T17:34:58.726Z,98591.31
2023-02-26T17:37:31.408Z,98592.13
2023-02-26T17:39:59.601Z,98588.44
2023-02-26T17:42:26.571Z,98591.97
2023-02-26T17:44:55.198Z,98588.84
2023-02-26T17:47:24.276Z,98602.22
2023-02-26T17:49:50.918Z,98600.72
2023-02-26T17:52:17.741Z,98606.25
2023-02-26T17:54:44.372Z,98598.22
2023-02-26T17:57:17.104Z,98603.75
2023-02-26T17:59:43.795Z,98614.69
2023-02-26T18:02:28.663Z,98612.19
2023-02-26T18:04:55.386Z,98612.41
2023-02-26T18:07:23.852Z,98623.19
2023-02-26T18:09:50.690Z,98625.38
2023-02-26T18:12:20.390Z,98612.41
2023-02-26T18:14:47.546Z,98623.41
2023-02-26T18:17:18.145Z,98626.34
2023-02-26T18:19:46.404Z,98630.47
2023-02-26T18:22:14.427Z,98628.13
2023-02-26T18:24:41.662Z,98636.41
2023-02-26T18:27:20.213Z,98629.69
2023-02-26T18:29:47.537Z,98634.19
2023-02-26T18:32:20.236Z,98634.03
2023-02-26T18:34:49.340Z,98641.47
2023-02-26T18:37:18.832Z,98640.50
2023-02-26T18:39:45.858Z,98639.91
2023-02-26T18:42:25.009Z,98636.00
2023-02-26T18:44:53.005Z,98636.56
2023-02-26T18:47:21.088Z,98639.72
2023-02-26T18:49:49.444Z,98632.66
2023-02-26T18:52:16.118Z,98640.13
2023-02-26T18:54:42.869Z,98643.47
2023-02-26T18:57:10.176Z,98639.13
2023-02-26T18:59:36.783Z,98633.25
2023-02-26T19:02:04.929Z,98641.50
2023-02-26T19:04:31.679Z,98643.47
2023-02-26T19:06:58.549Z,98657.00
2023-02-26T19:09:25.316Z,98653.13
2023-02-26T19:11:51.990Z,98665.09
2023-02-26T19:14:19.092Z,98663.91
2023-02-26T19:16:45.895Z,98659.16
2023-02-26T19:19:12.938Z,98663.53
2023-02-26T19:21:40.442Z,98656.63
2023-02-26T19:24:09.761Z,98665.28
2023-02-26T19:26:37.086Z,98653.47
2023-02-26T19:29:05.950Z,98669.97
2023-02-26T19:31:33.247Z,98663.91
2023-02-26T19:33:59.944Z,98659.78
2023-02-26T19:36:27.750Z,98663.13
2023-02-26T19:38:54.459Z,98659.63
2023-02-26T19:41:21.091Z,98662.94
2023-02-26T19:43:48.009Z,98675.13
2023-02-26T19:46:15.725Z,98672.78
2023-02-26T19:48:43.152Z,98665.47
2023-02-26T19:51:10.198Z,98671.41
2023-02-26T19:53:36.864Z,98671.56
2023-02-26T19:56:04.868Z,98677.88
2023-02-26T19:58:33.083Z,98681.81
2023-02-26T20:01:02.248Z,98682.59
2023-02-26T20:03:29.509Z,98688.88
2023-02-26T20:05:56.320Z,98687.13
2023-02-26T20:08:26.953Z,98692.63
2023-02-26T20:10:56.263Z,98698.50
2023-02-26T20:13:24.749Z,98701.84
2023-02-26T20:15:53.524Z,98698.31
2023-02-26T20:18:20.354Z,98701.81
2023-02-26T20:20:47.049Z,98707.56
2023-02-26T20:23:13.846Z,98712.03
2023-02-26T20:25:43.723Z,98703.59
2023-02-26T20:28:11.040Z,98705.75
2023-02-26T20:30:37.712Z,98705.16
2023-02-26T20:33:04.630Z,98709.28
2023-02-26T20:35:31.486Z,98706.72
2023-02-26T20:37:58.331Z,98711.66
2023-02-26T20:40:25.114Z,98713.59
2023-02-26T20:42:51.763Z,98710.03
2023-02-26T20:45:18.522Z,98709.88
2023-02-26T20:47:45.306Z,98706.88
2023-02-26T20:50:13.844Z,98707.88
2023-02-26T20:52:40.561Z,98705.34
2023-02-26T20:55:07.609Z,98703.56
2023-02-26T20:57:35.459Z,98705.34
2023-02-26T21:00:10.339Z,98711.03
2023-02-26T21:02:38.281Z,98714.16
2023-02-26T21:05:05.965Z,98712.38
2023-02-26T21:07:32.837Z,98715.72
2023-02-26T21:09:59.686Z,98714.16
2023-02-26T21:12:28.519Z,98727.88
2023-02-26T21:14:55.881Z,98720.41
2023-02-26T21:17:24.555Z,98717.88
2023-02-26T21:19:51.998Z,98717.59
2023-02-26T21:22:19.615Z,98718.94
2023-02-26T21:24:46.460Z,98713.44
2023-02-26T21:27:13.488Z,98714.66
2023-02-26T21:29:40.100Z,98718.38
2023-02-26T21:32:07.213Z,98708.31
2023-02-26T21:34:35.083Z,98707.75
2023-02-26T21:37:07.279Z,98713.06
2023-02-26T21:39:36.528Z,98713.66
2023-02-26T21:42:03.895Z,98719.53
2023-02-26T21:44:35.265Z,98722.34
2023-02-26T21:47:03.707Z,98714.09
2023-02-26T21:49:31.941Z,98716.41
2023-02-26T21:51:59.943Z,98714.13
2023-02-26T21:54:26.715Z,98710.50
2023-02-26T21:56:53.752Z,98712.84
2023-02-26T21:59:21.478Z,98707.56
2023-02-26T22:01:48.043Z,98703.78
2023-02-26T22:04:14.821Z,98705.78
2023-02-26T22:06:43.000Z,98698.91
2023-02-26T22:09:10.089Z,98700.91
2023-02-26T22:11:36.910Z,98713.34
2023-02-26T22:14:03.580Z,98696.53
2023-02-26T22:16:30.281Z,98701.22
2023-02-26T22:18:57.278Z,98704.91
2023-02-26T22:21:24.293Z,98702.97
2023-02-26T22:23:51.159Z,98702.41
2023-02-26T22:26:18.370Z,98701.97
2023-02-26T22:28:45.267Z,98696.25
2023-02-26T22:31:12.384Z,98694.69
2023-02-26T22:33:39.146Z,98698.34
2023-02-26T22:36:06.020Z,98693.09
2023-02-26T22:38:32.618Z,98698.19
2023-02-26T22:40:59.407Z,98692.50
2023-02-26T22:43:25.980Z,98690.13
2023-02-26T22:45:52.627Z,98690.25
2023-02-26T22:48:19.892Z,98682.78
2023-02-26T22:50:46.509Z,98687.31
2023-02-26T22:53:13.144Z,98682.19
2023-02-26T22:55:39.759Z,98678.03
2023-02-26T22:58:06.687Z,98682.56
2023-02-26T23:00:33.285Z,98678.16
2023-02-26T23:03:00.367Z,98671.44
2023-02-26T23:05:27.040Z,98665.19
2023-02-26T23:07:53.769Z,98668.72
2023-02-26T23:10:21.554Z,98675.22
2023-02-26T23:12:48.209Z,98676.78
2023-02-26T23:15:15.348Z,98673.91
2023-02-26T23:17:42.577Z,98668.97
2023-02-26T23:20:13.876Z,98673.59
2023-02-26T23:22:43.797Z,98668.19
2023-02-26T23:25:12.132Z,98668.88
2023-02-26T23:27:39.329Z,98668.31
2023-02-26T23:30:06.470Z,98660.84
2023-02-26T23:32:33.126Z,98659.47
2023-02-26T23:34:59.917Z,98651.81
2023-02-26T23:37:26.577Z,98672.69
2023-02-26T23:39:53.177Z,98664.78
2023-02-26T23:42:19.938Z,98674.25
2023-02-26T23:44:46.668Z,98661.06
2023-02-26T23:47:13.558Z,98661.47
2023-02-26T23:49:40.208Z,98658.31
2023-02-26T23:52:06.879Z,98654.72
2023-02-26T23:54:33.851Z,98652.31
2023-02-26T23:57:00.528Z,98651.88
2023-02-26T23:59:27.217Z,98654.06
